Time;durP1;ratioP1;P1;durP2;ratioP2;P2;SDS_P1;SDS_P2;PMS_P1;PMS_P2;Temp;Humidity;BMP_temperature;BMP_pressure;BME280_temperature;BME280_humidity;BME280_pressure;Samples;Min_cycle;Max_cycle;Signal;HPM_P1;HPM_P2
2022/07/08 00:00:48;;;;;;;;;2.00;2.00;;;;;19.81;50.34;102815.16;5075056;28;45428;-56
2022/07/08 00:03:14;;;;;;;;;3.00;1.00;;;;;19.77;50.89;102811.84;5061672;28;45285;-52
2022/07/08 00:05:40;;;;;;;;;2.75;2.75;;;;;19.77;50.39;102813.66;5063120;28;45176;-52
2022/07/08 00:08:05;;;;;;;;;6.75;2.00;;;;;19.72;50.71;102813.94;5062082;28;45296;-50
2022/07/08 00:10:31;;;;;;;;;5.75;2.50;;;;;19.69;50.88;102819.50;5062120;28;45169;-51
2022/07/08 00:12:56;;;;;;;;;3.75;3.25;;;;;19.64;50.51;102816.25;5061713;28;45168;-51
2022/07/08 00:15:22;;;;;;;;;3.50;2.50;;;;;19.59;50.67;102810.38;5069586;27;45287;-51
2022/07/08 00:17:48;;;;;;;;;4.00;3.00;;;;;19.52;50.86;102823.22;5069926;27;45274;-55
2022/07/08 00:20:13;;;;;;;;;1.75;1.25;;;;;19.47;50.60;102819.97;5068422;27;45555;-54
2022/07/08 00:22:39;;;;;;;;;4.00;3.00;;;;;19.44;50.91;102824.69;5081759;27;45964;-50
2022/07/08 00:25:05;;;;;;;;;3.50;3.00;;;;;19.40;51.22;102813.31;5071211;27;45460;-53
2022/07/08 00:27:30;;;;;;;;;4.00;3.00;;;;;19.33;51.27;102811.97;5073419;28;45344;-51
2022/07/08 00:29:56;;;;;;;;;5.00;2.25;;;;;19.30;51.44;102814.00;5061363;28;45548;-53
2022/07/08 00:32:22;;;;;;;;;3.75;2.75;;;;;19.28;51.04;102821.25;5060317;28;46073;-51
2022/07/08 00:34:48;;;;;;;;;3.75;3.00;;;;;19.25;51.03;102814.28;5074282;28;45396;-51
2022/07/08 00:37:13;;;;;;;;;7.75;2.75;;;;;19.24;51.48;102813.41;5062231;28;45329;-53
2022/07/08 00:39:39;;;;;;;;;5.00;3.75;;;;;19.20;51.48;102811.06;5060348;28;45460;-55
2022/07/08 00:42:05;;;;;;;;;6.00;3.00;;;;;19.16;51.43;102799.69;5070616;28;46210;-53
2022/07/08 00:44:31;;;;;;;;;6.00;3.00;;;;;19.11;51.51;102806.25;5061318;28;45445;-52
2022/07/08 00:46:57;;;;;;;;;7.75;3.50;;;;;19.07;51.90;102802.94;5061561;28;45219;-50
2022/07/08 00:49:23;;;;;;;;;4.50;3.00;;;;;19.06;51.61;102819.91;5061201;28;45339;-51
2022/07/08 00:51:49;;;;;;;;;3.00;3.00;;;;;19.07;51.93;102812.75;5067732;28;46394;-51
2022/07/08 00:54:18;;;;;;;;;2.50;2.00;;;;;19.06;52.30;102811.06;5060735;28;45298;-52
2022/07/08 00:56:43;;;;;;;;;5.00;3.00;;;;;19.02;51.70;102818.38;5061477;28;45276;-52
2022/07/08 00:59:10;;;;;;;;;6.50;3.00;;;;;19.00;51.91;102819.44;5061397;28;45542;-51
2022/07/08 01:01:36;;;;;;;;;5.50;3.75;;;;;18.95;51.73;102820.56;5080644;28;45353;-53
2022/07/08 01:04:02;;;;;;;;;2.25;2.25;;;;;18.91;52.36;102826.22;5070881;28;45442;-53
2022/07/08 01:06:28;;;;;;;;;5.50;3.00;;;;;18.86;52.33;102826.47;5070496;28;45328;-50
2022/07/08 01:08:54;;;;;;;;;4.00;4.00;;;;;18.83;52.03;102840.03;5061378;28;45389;-51
2022/07/08 01:11:19;;;;;;;;;2.50;2.50;;;;;18.81;51.98;102836.59;5060836;28;45996;-53
2022/07/08 01:13:47;;;;;;;;;3.25;2.00;;;;;18.79;52.49;102840.28;5060287;28;45493;-50
2022/07/08 01:16:12;;;;;;;;;4.25;2.00;;;;;18.79;52.44;102842.97;5060326;28;45465;-54
2022/07/08 01:18:40;;;;;;;;;9.75;5.00;;;;;18.74;52.61;102847.75;5061067;28;45444;-52
2022/07/08 01:21:05;;;;;;;;;7.50;4.50;;;;;18.69;52.59;102854.19;5060604;28;46166;-48
2022/07/08 01:23:31;;;;;;;;;5.00;3.00;;;;;18.67;52.51;102850.78;5065054;28;45416;-49
2022/07/08 01:25:58;;;;;;;;;9.00;4.50;;;;;18.68;52.50;102846.28;5071827;28;45465;-50
2022/07/08 01:28:23;;;;;;;;;3.25;2.75;;;;;18.65;52.87;102857.13;5071950;28;45310;-51
2022/07/08 01:30:49;;;;;;;;;7.75;3.25;;;;;18.61;52.81;102856.44;5076839;28;46816;-50
2022/07/08 01:33:15;;;;;;;;;5.75;2.75;;;;;18.58;52.56;102856.63;5070395;28;45581;-48
2022/07/08 01:35:40;;;;;;;;;5.00;3.00;;;;;18.55;52.64;102859.47;5069569;28;45389;-52
2022/07/08 01:38:06;;;;;;;;;9.00;3.50;;;;;18.55;52.68;102859.47;5063681;28;45354;-48
2022/07/08 01:40:31;;;;;;;;;4.75;2.25;;;;;18.57;52.67;102865.59;5060728;28;45927;-48
2022/07/08 01:42:57;;;;;;;;;4.25;3.25;;;;;18.55;53.10;102862.13;5061212;28;45321;-49
2022/07/08 01:45:22;;;;;;;;;6.75;4.00;;;;;18.50;53.02;102864.22;5060904;28;45383;-50
2022/07/08 01:47:48;;;;;;;;;3.00;3.00;;;;;18.50;53.32;102868.72;5060963;28;45402;-50
2022/07/08 01:50:13;;;;;;;;;6.00;3.00;;;;;18.47;52.85;102871.53;5060626;28;45392;-53
2022/07/08 01:52:39;;;;;;;;;5.25;3.00;;;;;18.41;53.06;102876.31;5060895;28;45228;-51
2022/07/08 01:55:05;;;;;;;;;3.50;2.00;;;;;18.35;53.07;102874.00;5060801;28;45319;-50
2022/07/08 01:57:31;;;;;;;;;1.00;1.00;;;;;18.36;53.40;102869.50;5061002;28;45275;-49
2022/07/08 01:59:57;;;;;;;;;3.00;3.00;;;;;18.30;53.42;102864.53;5066453;28;45910;-51
2022/07/08 02:02:23;;;;;;;;;3.75;2.00;;;;;18.25;53.47;102862.16;5080990;28;45409;-51
2022/07/08 02:04:49;;;;;;;;;5.00;2.00;;;;;18.26;53.25;102865.66;5080983;28;45329;-51
2022/07/08 02:07:15;;;;;;;;;3.00;2.25;;;;;18.26;53.35;102861.19;5080598;28;45408;-49
2022/07/08 02:09:41;;;;;;;;;3.25;2.25;;;;;18.25;53.33;102866.63;5080671;28;45309;-51
2022/07/08 02:12:20;;;;;;;;;6.25;2.25;;;;;18.24;53.40;102863.06;5080718;28;45272;-53
2022/07/08 02:14:50;;;;;;;;;3.50;2.00;;;;;18.18;53.52;102865.25;5081051;28;45480;-53
2022/07/08 02:17:17;;;;;;;;;2.00;2.00;;;;;18.14;53.57;102869.88;5080653;28;45461;-51
2022/07/08 02:19:43;;;;;;;;;4.50;3.00;;;;;18.10;53.47;102865.69;5080736;28;46526;-52
2022/07/08 02:22:09;;;;;;;;;2.00;2.00;;;;;18.12;53.90;102875.31;5080479;28;45467;-53
2022/07/08 02:24:36;;;;;;;;;3.00;3.00;;;;;18.12;53.58;102869.13;5080933;27;45219;-52
2022/07/08 02:27:02;;;;;;;;;5.00;4.00;;;;;18.10;53.81;102869.22;5064777;27;45339;-52
2022/07/08 02:29:27;;;;;;;;;3.00;2.50;;;;;18.08;53.70;102872.91;5063800;28;45529;-55
2022/07/08 02:31:53;;;;;;;;;3.25;2.00;;;;;18.07;53.53;102868.50;5063712;28;45220;-52
2022/07/08 02:34:19;;;;;;;;;4.75;3.00;;;;;18.03;53.66;102856.31;5064048;28;45689;-52
2022/07/08 02:36:44;;;;;;;;;4.50;3.75;;;;;18.01;53.59;102855.53;5063663;28;45491;-52
2022/07/08 02:39:12;;;;;;;;;3.00;3.00;;;;;17.98;53.76;102851.22;5063745;28;45339;-53
2022/07/08 02:41:38;;;;;;;;;4.00;4.00;;;;;17.98;53.74;102856.56;5063659;28;45338;-50
2022/07/08 02:44:05;;;;;;;;;6.00;2.75;;;;;17.94;53.80;102847.03;5063758;28;45307;-52
2022/07/08 02:46:30;;;;;;;;;4.00;2.00;;;;;17.90;53.75;102841.94;5063524;28;45322;-54
2022/07/08 02:48:56;;;;;;;;;4.25;3.75;;;;;17.85;54.08;102844.88;5063354;28;45346;-51
2022/07/08 02:51:22;;;;;;;;;2.75;2.75;;;;;17.81;54.03;102846.84;5063436;28;45214;-49
2022/07/08 02:53:47;;;;;;;;;5.00;2.00;;;;;17.80;54.23;102852.28;5063730;28;45161;-49
2022/07/08 02:56:13;;;;;;;;;4.00;3.75;;;;;17.80;54.34;102847.81;5063620;28;45322;-52
2022/07/08 02:58:38;;;;;;;;;2.00;2.00;;;;;17.80;53.93;102849.63;5063400;28;45729;-49
2022/07/08 03:01:04;;;;;;;;;6.00;2.75;;;;;17.78;54.36;102849.72;5078817;28;45688;-49
2022/07/08 03:03:30;;;;;;;;;5.00;2.25;;;;;17.80;53.98;102857.63;5083497;28;45386;-47
2022/07/08 03:05:55;;;;;;;;;5.00;3.00;;;;;17.78;54.06;102854.19;5083645;28;45376;-47
2022/07/08 03:08:21;;;;;;;;;3.00;2.00;;;;;17.72;54.28;102852.72;5083426;28;45350;-49
2022/07/08 03:10:46;;;;;;;;;2.25;2.25;;;;;17.66;54.53;102861.00;5083483;28;45371;-50
2022/07/08 03:13:12;;;;;;;;;5.75;3.00;;;;;17.64;54.47;102870.91;5083888;28;45345;-49
2022/07/08 03:15:37;;;;;;;;;4.00;2.00;;;;;17.64;54.50;102868.22;5083525;28;45609;-49
2022/07/08 03:18:03;;;;;;;;;5.25;3.75;;;;;17.65;54.41;102864.63;5083319;28;45363;-50
2022/07/08 03:20:28;;;;;;;;;3.00;1.00;;;;;17.64;54.57;102860.25;5083447;28;45289;-49
2022/07/08 03:22:54;;;;;;;;;2.50;2.00;;;;;17.66;54.54;102868.16;5083498;28;45282;-49
2022/07/08 03:25:19;;;;;;;;;4.75;2.00;;;;;17.61;54.78;102872.84;5082041;28;45648;-51
2022/07/08 03:27:45;;;;;;;;;3.00;3.00;;;;;17.56;54.61;102871.31;5062961;28;46103;-51
2022/07/08 03:30:10;;;;;;;;;2.50;2.50;;;;;17.53;54.61;102879.47;5062943;28;45222;-53
2022/07/08 03:32:36;;;;;;;;;3.75;3.00;;;;;17.50;54.83;102878.78;5063185;28;45252;-49
2022/07/08 03:35:01;;;;;;;;;1.75;1.00;;;;;17.39;54.83;102876.72;5062955;28;45406;-53
2022/07/08 03:37:27;;;;;;;;;5.25;2.25;;;;;17.38;54.87;102885.66;5062568;28;45267;-53
2022/07/08 03:39:53;;;;;;;;;4.00;2.50;;;;;17.38;55.00;102884.75;5061553;28;45307;-53
2022/07/08 03:42:19;;;;;;;;;6.50;2.75;;;;;17.31;54.89;102881.59;5063164;28;45568;-50
2022/07/08 03:44:45;;;;;;;;;6.50;2.00;;;;;17.30;55.02;102886.06;5062817;28;45626;-49
2022/07/08 03:47:10;;;;;;;;;3.00;2.75;;;;;17.34;55.05;102892.06;5062439;28;45326;-51
2022/07/08 03:49:36;;;;;;;;;3.75;3.75;;;;;17.35;55.17;102884.94;5062386;28;45361;-51
2022/07/08 03:52:01;;;;;;;;;4.25;2.00;;;;;17.36;55.29;102889.31;5062639;28;45378;-53
2022/07/08 03:54:27;;;;;;;;;3.50;2.75;;;;;17.36;55.22;102889.31;5062712;28;45428;-50
2022/07/08 03:56:53;;;;;;;;;3.00;3.00;;;;;17.36;55.27;102882.19;5062574;28;46561;-52
2022/07/08 03:59:19;;;;;;;;;3.25;2.00;;;;;17.37;55.25;102888.38;5063171;28;45272;-50
2022/07/08 04:01:44;;;;;;;;;5.00;4.00;;;;;17.35;55.17;102893.78;5082858;28;45179;-53
2022/07/08 04:04:10;;;;;;;;;2.25;2.25;;;;;17.35;55.25;102896.44;5082879;28;45343;-52
2022/07/08 04:06:36;;;;;;;;;2.75;2.50;;;;;17.32;55.22;102909.09;5082425;28;46027;-52
2022/07/08 04:09:03;;;;;;;;;4.00;2.00;;;;;17.29;55.16;102902.09;5082508;28;45314;-54
2022/07/08 04:11:28;;;;;;;;;3.00;3.00;;;;;17.28;55.37;102897.72;5082879;28;45317;-50
2022/07/08 04:13:53;;;;;;;;;5.00;4.00;;;;;17.27;55.43;102896.84;5082611;28;45350;-53
2022/07/08 04:16:19;;;;;;;;;3.75;3.00;;;;;17.29;55.28;102896.78;5082369;28;45417;-49
2022/07/08 04:18:45;;;;;;;;;4.50;3.00;;;;;17.28;55.44;102895.91;5082387;28;45314;-52
2022/07/08 04:21:10;;;;;;;;;4.50;3.00;;;;;17.28;55.32;102901.25;5082433;28;45319;-52
2022/07/08 04:23:37;;;;;;;;;3.25;2.00;;;;;17.29;55.55;102899.44;5082674;27;45247;-48
2022/07/08 04:26:03;;;;;;;;;4.75;3.00;;;;;17.29;55.57;102899.44;5074338;27;46338;-52
2022/07/08 04:28:29;;;;;;;;;3.50;3.00;;;;;17.28;55.55;102898.56;5061781;28;45284;-52
2022/07/08 04:30:55;;;;;;;;;4.75;3.00;;;;;17.31;55.59;102905.56;5062164;28;45412;-51
2022/07/08 04:33:21;;;;;;;;;3.75;3.00;;;;;17.33;55.48;102901.00;5061869;28;45453;-48
2022/07/08 04:35:46;;;;;;;;;3.00;3.00;;;;;17.37;55.51;102907.03;5061845;28;45287;-53
2022/07/08 04:38:12;;;;;;;;;3.75;3.00;;;;;17.42;55.52;102902.31;5061671;28;45371;-49
2022/07/08 04:40:37;;;;;;;;;4.00;3.00;;;;;17.44;55.68;102903.94;5062012;28;45529;-51
2022/07/08 04:43:03;;;;;;;;;3.00;3.00;;;;;17.48;55.43;102910.00;5062057;28;45220;-50
2022/07/08 04:45:28;;;;;;;;;5.00;3.00;;;;;17.49;55.42;102911.72;5061803;28;46105;-50
2022/07/08 04:47:54;;;;;;;;;5.25;2.75;;;;;17.44;55.43;102922.59;5061505;28;45504;-50
2022/07/08 04:50:20;;;;;;;;;4.00;3.50;;;;;17.42;55.32;102921.81;5061421;28;45315;-52
2022/07/08 04:52:47;;;;;;;;;6.00;3.75;;;;;17.41;55.25;102924.59;5061442;28;45549;-53
2022/07/08 04:55:27;;;;;;;;;5.50;2.50;;;;;17.38;55.42;102914.97;5061358;28;45381;-53
2022/07/08 04:58:00;;;;;;;;;5.50;4.25;;;;;17.37;55.47;102917.69;5061387;28;45305;-51
2022/07/08 05:00:26;;;;;;;;;3.00;2.75;;;;;17.37;55.59;102921.19;5071444;28;45232;-49
2022/07/08 05:02:51;;;;;;;;;6.00;3.00;;;;;17.34;55.51;102918.72;5081653;28;45188;-52
2022/07/08 05:05:20;;;;;;;;;5.00;4.00;;;;;17.33;55.50;102924.13;5081437;28;46254;-48
2022/07/08 05:07:47;;;;;;;;;4.25;3.50;;;;;17.35;55.51;102930.22;5081323;28;45346;-51
2022/07/08 05:10:14;;;;;;;;;4.25;3.75;;;;;17.37;55.57;102929.19;5081615;27;45307;-52
2022/07/08 05:12:40;;;;;;;;;5.50;3.75;;;;;17.42;55.47;102936.97;5081718;28;45279;-49
2022/07/08 05:15:06;;;;;;;;;2.50;2.50;;;;;17.42;55.38;102935.16;5081441;28;45357;-48
2022/07/08 05:17:31;;;;;;;;;5.25;3.00;;;;;17.42;55.61;102937.81;5081294;28;45350;-52
2022/07/08 05:19:57;;;;;;;;;5.75;3.25;;;;;17.43;55.46;102939.53;5081701;28;45318;-52
2022/07/08 05:22:22;;;;;;;;;5.75;3.00;;;;;17.45;55.33;102945.63;5081335;28;45435;-49
2022/07/08 05:24:47;;;;;;;;;6.50;1.75;;;;;17.42;55.53;102945.81;5081135;28;45947;-51
2022/07/08 05:27:13;;;;;;;;;8.00;3.75;;;;;17.42;55.49;102945.81;5064188;27;45101;-51
2022/07/08 05:29:38;;;;;;;;;9.25;8.00;;;;;17.47;55.44;102946.44;5061173;28;45374;-52
2022/07/08 05:32:04;;;;;;;;;6.75;3.75;;;;;17.56;55.37;102943.28;5074230;28;45539;-48
2022/07/08 05:34:29;;;;;;;;;4.00;3.00;;;;;17.68;55.20;102938.22;5060910;28;45457;-50
2022/07/08 05:36:55;;;;;;;;;5.25;3.25;;;;;17.80;55.35;102938.44;5063856;28;45368;-49
2022/07/08 05:39:20;;;;;;;;;4.25;3.25;;;;;17.88;55.15;102935.38;5060882;28;45331;-49
2022/07/08 05:41:46;;;;;;;;;4.00;3.50;;;;;17.96;55.24;102946.47;5060898;28;45261;-49
2022/07/08 05:44:11;;;;;;;;;3.50;2.25;;;;;18.05;54.72;102948.63;5074467;27;48054;-48
2022/07/08 05:46:37;;;;;;;;;6.00;5.25;;;;;18.11;55.01;102937.63;5067409;28;45303;-49
2022/07/08 05:49:02;;;;;;;;;5.75;5.00;;;;;18.18;54.61;102939.94;5061011;28;45300;-49
2022/07/08 05:51:28;;;;;;;;;5.25;3.00;;;;;18.23;54.61;102945.84;5060477;28;45325;-52
2022/07/08 05:53:55;;;;;;;;;5.50;3.25;;;;;18.27;54.47;102939.41;5060670;28;45550;-48
2022/07/08 05:56:21;;;;;;;;;4.50;3.25;;;;;18.29;54.63;102949.06;5060246;28;45398;-50
2022/07/08 05:58:47;;;;;;;;;4.00;3.00;;;;;18.30;54.20;102939.22;5060881;28;45319;-48
2022/07/08 06:01:12;;;;;;;;;3.50;3.00;;;;;18.29;53.73;102941.03;5077163;28;45561;-52
2022/07/08 06:03:38;;;;;;;;;4.25;3.50;;;;;18.33;53.93;102941.75;5082966;28;45251;-48
2022/07/08 06:06:03;;;;;;;;;4.00;4.00;;;;;18.37;54.10;102937.94;5075572;28;45401;-53
2022/07/08 06:08:29;;;;;;;;;4.50;3.50;;;;;18.42;54.07;102941.22;5064155;28;45439;-49
2022/07/08 06:10:56;;;;;;;;;5.50;4.00;;;;;18.47;53.90;102939.13;5064078;28;45434;-49
2022/07/08 06:13:22;;;;;;;;;4.25;3.00;;;;;18.51;53.96;102948.69;5064087;28;45299;-50
2022/07/08 06:15:48;;;;;;;;;5.75;3.75;;;;;18.53;53.80;102946.78;5063581;28;45476;-50
2022/07/08 06:18:13;;;;;;;;;5.50;3.75;;;;;18.57;53.73;102953.69;5063919;28;45314;-51
2022/07/08 06:20:39;;;;;;;;;5.25;4.00;;;;;18.64;53.64;102955.06;5063889;28;45403;-49
2022/07/08 06:23:04;;;;;;;;;5.00;2.00;;;;;18.74;53.49;102943.88;5069014;28;45323;-53
2022/07/08 06:25:30;;;;;;;;;4.75;3.00;;;;;18.83;53.71;102945.97;5067847;28;45440;-52
2022/07/08 06:27:55;;;;;;;;;4.50;3.25;;;;;18.89;53.45;102951.84;5071951;28;46388;-53
2022/07/08 06:30:20;;;;;;;;;5.75;4.50;;;;;18.98;53.37;102953.09;5080142;28;45326;-56
2022/07/08 06:32:46;;;;;;;;;5.25;3.00;;;;;19.01;52.64;102957.38;5063595;28;45793;-59
2022/07/08 06:35:11;;;;;;;;;7.00;2.00;;;;;19.01;52.64;102966.25;5063607;28;45219;-54
2022/07/08 06:37:37;;;;;;;;;4.00;3.00;;;;;19.00;52.51;102964.53;5061762;27;45263;-54
2022/07/08 06:40:04;;;;;;;;;3.00;3.00;;;;;19.00;52.59;102971.69;5072542;28;45457;-55
2022/07/08 06:42:29;;;;;;;;;6.25;3.50;;;;;19.05;52.16;102970.47;5065467;27;46470;-53
2022/07/08 06:44:55;;;;;;;;;4.25;3.25;;;;;19.12;52.03;102968.31;5068204;28;45256;-55
2022/07/08 06:47:22;;;;;;;;;4.50;3.50;;;;;19.20;52.55;102969.56;5063796;28;45569;-51
2022/07/08 06:49:48;;;;;;;;;5.00;3.75;;;;;19.29;52.18;102967.28;5068807;28;45411;-55
2022/07/08 06:52:14;;;;;;;;;4.50;2.75;;;;;19.32;52.07;102964.41;5069109;27;45362;-55
2022/07/08 06:54:40;;;;;;;;;4.25;3.00;;;;;19.36;52.27;102968.63;5071514;28;45336;-53
2022/07/08 06:57:10;;;;;;;;;3.00;3.00;;;;;19.38;51.62;102966.72;5071893;28;45287;-56
2022/07/08 06:59:36;;;;;;;;;7.50;3.00;;;;;19.36;52.00;102964.16;5072775;28;45464;-55
2022/07/08 07:02:01;;;;;;;;;3.00;2.25;;;;;19.40;51.91;102964.81;5072343;28;45429;-55
2022/07/08 07:04:27;;;;;;;;;4.75;3.50;;;;;19.44;51.52;102969.03;5062698;27;45465;-54
2022/07/08 07:06:53;;;;;;;;;3.00;3.00;;;;;19.46;51.68;102969.78;5068018;28;45496;-56
2022/07/08 07:09:18;;;;;;;;;11.50;6.00;;;;;19.47;51.52;102968.81;5063381;28;45414;-58
2022/07/08 07:11:44;;;;;;;;;3.00;2.00;;;;;19.49;51.63;102970.44;5072324;28;46057;-56
2022/07/08 07:14:10;;;;;;;;;3.50;3.00;;;;;19.53;51.26;102965.78;5078841;27;45370;-56
2022/07/08 07:16:36;;;;;;;;;7.75;4.00;;;;;19.58;51.32;102969.03;5067918;28;45368;-56
2022/07/08 07:19:01;;;;;;;;;4.25;3.00;;;;;19.53;51.31;102965.78;5083284;28;45245;-54
2022/07/08 07:21:27;;;;;;;;;3.75;2.75;;;;;19.55;51.06;102969.22;5082665;28;46450;-56
2022/07/08 07:23:52;;;;;;;;;6.00;3.50;;;;;19.60;51.56;102967.16;5083192;28;45302;-56
2022/07/08 07:26:18;;;;;;;;;5.00;4.00;;;;;19.66;51.50;102969.41;5069194;28;45402;-56
2022/07/08 07:28:43;;;;;;;;;4.00;4.00;;;;;19.73;51.27;102965.41;5062887;28;45225;-56
2022/07/08 07:31:09;;;;;;;;;4.00;4.00;;;;;19.74;51.07;102963.59;5063051;28;46037;-57
2022/07/08 07:33:34;;;;;;;;;8.00;5.75;;;;;19.76;51.10;102964.38;5062518;28;45289;-56
2022/07/08 07:36:00;;;;;;;;;8.00;5.00;;;;;19.78;50.77;102973.16;5062768;28;45302;-57
2022/07/08 07:38:25;;;;;;;;;65.00;49.50;;;;;19.79;50.74;102970.38;5062693;28;45307;-55
2022/07/08 07:40:51;;;;;;;;;5.75;3.50;;;;;19.80;50.70;102971.25;5062898;28;46250;-57
2022/07/08 07:43:17;;;;;;;;;7.75;5.00;;;;;19.82;50.82;102972.00;5062682;28;45425;-57
2022/07/08 07:45:43;;;;;;;;;9.00;6.50;;;;;19.82;50.99;102969.31;5062868;28;45366;-55
2022/07/08 07:48:08;;;;;;;;;5.75;5.25;;;;;19.87;50.36;102977.94;5062614;28;45555;-57
2022/07/08 07:50:34;;;;;;;;;6.50;5.00;;;;;19.83;50.10;102971.06;5062096;28;45246;-56
2022/07/08 07:52:59;;;;;;;;;10.25;7.00;;;;;19.86;50.70;102972.69;5062179;28;45375;-57
2022/07/08 07:55:25;;;;;;;;;9.50;7.00;;;;;19.89;50.25;102972.47;5062685;28;45452;-57
2022/07/08 07:57:50;;;;;;;;;7.50;5.25;;;;;19.94;50.26;102968.56;5062731;28;45228;-57
2022/07/08 08:00:17;;;;;;;;;7.00;6.75;;;;;19.95;50.11;102975.63;5071141;28;45525;-57
2022/07/08 08:02:43;;;;;;;;;8.25;7.00;;;;;19.99;50.10;102971.81;5082573;28;45394;-56
2022/07/08 08:05:09;;;;;;;;;9.00;6.00;;;;;20.01;50.30;102975.25;5076358;28;45189;-58
2022/07/08 08:07:39;;;;;;;;;8.25;8.00;;;;;20.03;50.26;102967.97;5067466;27;45424;-57
2022/07/08 08:10:05;;;;;;;;;9.75;6.50;;;;;20.03;49.94;102959.94;5065988;28;45445;-56
2022/07/08 08:12:31;;;;;;;;;9.50;8.00;;;;;20.10;49.86;102959.56;5067876;28;45294;-56
2022/07/08 08:14:56;;;;;;;;;11.00;7.25;;;;;20.15;49.84;102963.66;5062200;28;45493;-57
2022/07/08 08:17:22;;;;;;;;;12.00;8.00;;;;;20.20;50.08;102952.66;5075216;28;45389;-57
2022/07/08 08:19:48;;;;;;;;;7.00;5.25;;;;;20.26;50.16;102955.78;5062096;28;46166;-57
2022/07/08 08:22:13;;;;;;;;;13.25;9.50;;;;;20.31;49.70;102953.69;5061906;28;45177;-56
2022/07/08 08:24:39;;;;;;;;;10.00;6.75;;;;;20.36;49.83;102962.25;5061924;28;45462;-57
2022/07/08 08:27:04;;;;;;;;;8.75;7.00;;;;;20.36;49.63;102956.91;5061572;28;45330;-56
2022/07/08 08:29:30;;;;;;;;;9.75;6.50;;;;;20.34;49.41;102956.16;5061897;28;45516;-56
2022/07/08 08:31:55;;;;;;;;;11.00;6.50;;;;;20.33;49.73;102957.09;5061796;28;45310;-57
2022/07/08 08:34:21;;;;;;;;;11.00;7.50;;;;;20.33;49.37;102956.25;5062317;28;45299;-57
2022/07/08 08:36:46;;;;;;;;;6.75;5.50;;;;;20.40;49.34;102964.75;5061981;28;45255;-56
2022/07/08 08:39:12;;;;;;;;;5.25;5.25;;;;;20.47;49.49;102955.38;5060579;28;46400;-56
2022/07/08 08:41:39;;;;;;;;;9.25;7.00;;;;;20.47;48.83;102953.56;5061662;28;45437;-56
2022/07/08 08:44:05;;;;;;;;;11.50;9.00;;;;;20.48;48.79;102944.56;5061877;28;45279;-56
2022/07/08 08:46:31;;;;;;;;;10.25;8.00;;;;;20.55;48.62;102945.03;5061687;28;45350;-56
2022/07/08 08:48:57;;;;;;;;;9.50;8.25;;;;;20.59;49.08;102946.53;5060303;28;47845;-56
2022/07/08 08:51:23;;;;;;;;;9.75;8.25;;;;;20.60;48.68;102942.88;5061302;28;45177;-57
2022/07/08 08:53:52;;;;;;;;;9.00;7.25;;;;;20.63;48.63;102951.59;5061756;28;45292;-56
2022/07/08 08:56:17;;;;;;;;;8.00;6.75;;;;;20.68;48.72;102942.38;5061692;28;45473;-57
2022/07/08 08:58:48;;;;;;;;;9.00;7.75;;;;;20.68;48.71;102943.22;5061462;28;45434;-57
2022/07/08 09:01:15;;;;;;;;;7.25;6.75;;;;;20.76;48.67;102929.31;5077840;28;45165;-57
2022/07/08 09:03:40;;;;;;;;;11.50;6.75;;;;;20.78;48.60;102925.59;5081615;28;45447;-56
2022/07/08 09:06:06;;;;;;;;;10.50;6.75;;;;;20.82;48.40;102919.06;5081449;28;45559;-57
2022/07/08 09:08:32;;;;;;;;;10.50;6.50;;;;;20.85;48.18;102926.91;5081479;28;45424;-57
2022/07/08 09:10:58;;;;;;;;;7.50;6.00;;;;;20.86;48.02;102920.56;5081478;28;45317;-57
2022/07/08 09:13:25;;;;;;;;;6.00;6.00;;;;;20.92;47.87;102920.13;5081800;28;45330;-57
2022/07/08 09:15:57;;;;;;;;;5.50;5.50;;;;;21.00;47.90;102911.56;5080275;27;45503;-57
2022/07/08 09:18:28;;;;;;;;;9.50;7.25;;;;;21.05;47.83;102917.47;5070678;27;46178;-57
2022/07/08 09:20:55;;;;;;;;;6.00;6.00;;;;;21.09;47.33;102908.28;5060788;28;45242;-57
2022/07/08 09:23:26;;;;;;;;;6.75;4.50;;;;;21.14;47.12;102913.31;5061477;28;45330;-56
2022/07/08 09:25:54;;;;;;;;;7.00;6.50;;;;;21.21;46.85;102919.94;5060870;28;45524;-57
2022/07/08 09:28:33;;;;;;;;;9.00;6.75;;;;;21.26;46.56;102914.28;5060738;28;45406;-57
2022/07/08 09:31:00;;;;;;;;;6.50;4.75;;;;;21.30;46.66;102911.28;5068365;28;45391;-56
2022/07/08 09:33:26;;;;;;;;;9.75;6.50;;;;;21.35;46.74;102909.16;5081272;28;45192;-58
2022/07/08 09:35:53;;;;;;;;;6.25;4.00;;;;;21.40;46.54;102906.97;5081428;27;45429;-56
2022/07/08 09:38:19;;;;;;;;;5.75;4.00;;;;;21.45;46.22;102907.53;5079509;28;45639;-56
2022/07/08 09:41:04;;;;;;;;;4.50;4.50;;;;;21.51;45.96;102908.94;5081066;28;45361;-57
2022/07/08 09:43:31;;;;;;;;;7.75;6.00;;;;;21.56;45.56;102895.16;5081186;27;45351;-57
2022/07/08 09:46:05;;;;;;;;;6.25;5.25;;;;;21.63;45.61;102902.66;5081214;27;45337;-57
2022/07/08 09:48:31;;;;;;;;;5.00;5.00;;;;;21.68;45.34;102897.00;5078421;28;46270;-56
2022/07/08 09:50:59;;;;;;;;;5.00;4.75;;;;;21.69;44.73;102896.88;5060693;28;45330;-57
2022/07/08 09:53:28;;;;;;;;;6.75;6.75;;;;;21.72;45.33;102901.16;5060691;28;45196;-56
2022/07/08 09:55:58;;;;;;;;;6.25;5.00;;;;;21.81;45.26;102910.38;5081241;27;45448;-57
2022/07/08 09:58:26;;;;;;;;;5.50;4.50;;;;;21.88;45.00;102892.84;5060915;28;45325;-57
2022/07/08 10:00:53;;;;;;;;;29.25;25.25;;;;;21.98;45.23;102896.59;5073185;28;45160;-56
2022/07/08 10:03:20;;;;;;;;;13.50;11.50;;;;;22.07;44.74;102903.97;5080023;28;45533;-57
2022/07/08 10:05:46;;;;;;;;;6.75;6.00;;;;;22.13;44.98;102903.53;5080495;28;45318;-58
2022/07/08 10:08:13;;;;;;;;;7.25;6.00;;;;;22.14;44.90;102902.56;5078624;28;46495;-58
2022/07/08 10:10:40;;;;;;;;;7.25;6.00;;;;;22.20;44.70;102896.75;5079949;28;45472;-57
2022/07/08 10:13:06;;;;;;;;;4.75;3.50;;;;;22.31;44.57;102901.31;5079893;28;45513;-56
2022/07/08 10:15:34;;;;;;;;;8.75;7.25;;;;;22.37;44.25;102895.50;5080209;28;45256;-56
2022/07/08 10:18:10;;;;;;;;;8.75;5.50;;;;;22.42;44.37;102897.81;5072393;28;45463;-57
2022/07/08 10:20:38;;;;;;;;;5.25;4.00;;;;;22.47;43.99;102890.28;5059560;28;45326;-57
2022/07/08 10:23:11;;;;;;;;;8.75;5.00;;;;;22.55;43.62;102890.53;5059751;28;45319;-56
2022/07/08 10:25:37;;;;;;;;;3.50;3.00;;;;;22.62;43.36;102890.94;5060007;28;45260;-56
2022/07/08 10:28:07;;;;;;;;;5.25;4.00;;;;;22.70;43.39;102899.28;5059418;28;46338;-56
2022/07/08 10:30:50;;;;;;;;;5.00;4.50;;;;;22.79;43.14;102894.03;5059648;28;45192;-57
2022/07/08 10:33:24;;;;;;;;;7.00;6.25;;;;;22.86;42.68;102899.84;5059624;28;45346;-57
2022/07/08 10:36:06;;;;;;;;;6.00;5.75;;;;;22.97;42.75;102899.00;5059282;28;45486;-57
2022/07/08 10:38:41;;;;;;;;;7.25;6.25;;;;;23.04;43.01;102890.34;5059426;28;46334;-57
2022/07/08 10:41:12;;;;;;;;;4.75;4.25;;;;;23.13;42.43;102892.28;5060083;28;45358;-56
2022/07/08 10:43:50;;;;;;;;;3.00;1.25;;;;;23.18;42.32;102889.25;5060137;28;45291;-57
2022/07/08 10:46:17;;;;;;;;;4.00;3.25;;;;;23.23;41.83;102888.91;5060277;28;45551;-55
2022/07/08 10:48:45;;;;;;;;;3.00;3.00;;;;;23.27;41.41;102884.97;5060531;28;46217;-55
2022/07/08 10:51:20;;;;;;;;;10.25;9.50;;;;;23.32;41.44;102896.25;5063229;28;45425;-55
2022/07/08 10:53:52;;;;;;;;;14.50;11.50;;;;;23.33;40.80;102895.25;5070999;28;45219;-55
2022/07/08 10:56:49;;;;;;;;;4.00;3.25;;;;;23.35;41.28;102888.78;5083852;28;45236;-55
2022/07/08 10:59:22;;;;;;;;;5.75;4.00;;;;;23.42;41.31;102885.59;5083683;27;46153;-54
2022/07/08 11:01:52;;;;;;;;;15.50;13.25;;;;;23.48;41.24;102891.34;5070881;28;45387;-56
2022/07/08 11:04:33;;;;;;;;;13.75;12.50;;;;;23.54;41.04;102872.03;5083358;28;45312;-57
2022/07/08 11:09:53;;;;;;;;;17.00;15.50;;;;;23.76;40.73;102881.91;5083262;28;46103;-56
2022/07/08 11:12:24;;;;;;;;;7.50;7.25;;;;;23.83;40.90;102880.44;5083429;28;45493;-56
2022/07/08 11:14:52;;;;;;;;;5.25;3.25;;;;;23.94;40.81;102868.81;5084039;28;45463;-57
2022/07/08 11:17:31;;;;;;;;;4.75;3.00;;;;;24.03;40.40;102876.13;5082026;27;45430;-57
2022/07/08 11:19:59;;;;;;;;;6.00;1.75;;;;;24.07;40.08;102874.88;5063097;28;45339;-57
2022/07/08 11:22:26;;;;;;;;;5.25;4.00;;;;;24.11;39.64;102873.66;5062711;28;45365;-56
2022/07/08 11:24:55;;;;;;;;;4.00;4.00;;;;;24.19;39.49;102871.19;5063308;28;45335;-56